createdAt,value
2023-01-04T00:00:00.368Z,100844.73
2023-01-04T00:03:09.397Z,100846.27
2023-01-04T00:06:05.210Z,100838.70
2023-01-04T00:08:54.514Z,100836.84
2023-01-04T00:11:42.719Z,100837.39
2023-01-04T00:14:31.271Z,100836.16
2023-01-04T00:17:19.417Z,100835.05
2023-01-04T00:20:09.639Z,100833.69
2023-01-04T00:23:00.845Z,100834.05
2023-01-04T00:25:49.479Z,100835.80
2023-01-04T00:28:39.179Z,100845.11
2023-01-04T00:31:29.843Z,100843.74
2023-01-04T00:34:19.628Z,100844.88
2023-01-04T00:37:08.088Z,100847.79
2023-01-04T00:39:56.562Z,100848.11
2023-01-04T00:42:44.603Z,100846.96
2023-01-04T00:45:33.441Z,100849.63
2023-01-04T00:48:22.102Z,100844.75
2023-01-04T00:51:10.051Z,100838.96
2023-01-04T00:54:00.946Z,100835.02
2023-01-04T00:56:50.524Z,100839.54
2023-01-04T00:59:38.696Z,100840.56
2023-01-04T01:02:27.507Z,100841.23
2023-01-04T01:05:16.531Z,100840.71
2023-01-04T01:08:24.880Z,100833.13
2023-01-04T01:11:15.774Z,100844.05
2023-01-04T01:14:05.417Z,100843.88
2023-01-04T01:16:56.974Z,100845.63
2023-01-04T01:19:45.876Z,100850.95
2023-01-04T01:22:36.369Z,100847.83
2023-01-04T01:25:24.520Z,100838.23
2023-01-04T01:28:13.989Z,100829.65
2023-01-04T01:31:27.386Z,100821.63
2023-01-04T01:34:18.336Z,100823.56
2023-01-04T01:37:06.885Z,100809.79
2023-01-04T01:39:55.080Z,100810.70
2023-01-04T01:42:43.785Z,100811.55
2023-01-04T01:45:34.688Z,100804.88
2023-01-04T01:48:29.156Z,100806.47
2023-01-04T01:51:19.683Z,100805.92
2023-01-04T01:54:20.875Z,100805.19
2023-01-04T01:57:14.178Z,100804.63
2023-01-04T02:00:15.096Z,100801.42
2023-01-04T02:03:16.820Z,100797.98
2023-01-04T02:06:10.614Z,100795.05
2023-01-04T02:09:01.456Z,100787.02
2023-01-04T02:11:49.989Z,100785.95
2023-01-04T02:14:39.334Z,100776.34
2023-01-04T02:17:32.184Z,100778.65
2023-01-04T02:20:26.253Z,100779.23
2023-01-04T02:23:52.275Z,100776.18
2023-01-04T02:26:55.952Z,100775.95
2023-01-04T02:30:09.428Z,100774.77
2023-01-04T02:33:35.817Z,100769.27
2023-01-04T02:37:01.799Z,100757.80
2023-01-04T02:40:11.180Z,100754.52
2023-01-04T02:43:20.507Z,100755.73
2023-01-04T02:46:34.700Z,100759.60
2023-01-04T02:49:41.632Z,100766.97
2023-01-04T02:52:30.178Z,100775.31
2023-01-04T02:55:19.303Z,100780.20
2023-01-04T02:58:27.951Z,100772.65
2023-01-04T03:02:43.375Z,100756.34
2023-01-04T03:06:16.054Z,100761.00
2023-01-04T03:09:26.138Z,100764.22
2023-01-04T03:12:32.866Z,100760.80
2023-01-04T03:15:33.907Z,100757.73
2023-01-04T03:18:30.050Z,100753.42
2023-01-04T03:21:21.242Z,100750.04
2023-01-04T03:24:28.988Z,100747.52
2023-01-04T03:27:38.513Z,100745.17
2023-01-04T03:30:49.487Z,100744.81
2023-01-04T03:33:59.446Z,100742.66
2023-01-04T03:37:19.858Z,100735.77
2023-01-04T03:40:50.288Z,100732.31
2023-01-04T03:44:09.866Z,100724.34
2023-01-04T03:47:27.692Z,100724.88
2023-01-04T03:50:32.152Z,100718.05
2023-01-04T03:53:21.603Z,100716.83
2023-01-04T03:56:11.746Z,100703.09
2023-01-04T03:59:00.651Z,100691.73
2023-01-04T04:01:50.240Z,100682.12
2023-01-04T04:04:57.000Z,100673.38
2023-01-04T04:08:04.558Z,100669.52
2023-01-04T04:10:53.771Z,100664.95
2023-01-04T04:13:42.019Z,100656.73
2023-01-04T04:16:30.372Z,100657.58
2023-01-04T04:19:19.224Z,100647.27
2023-01-04T04:22:07.674Z,100642.36
2023-01-04T04:24:55.712Z,100633.77
2023-01-04T04:27:44.255Z,100624.48
2023-01-04T04:30:32.757Z,100617.81
2023-01-04T04:33:21.174Z,100617.59
2023-01-04T04:36:10.519Z,100613.19
2023-01-04T04:38:58.830Z,100614.56
2023-01-04T04:41:47.139Z,100614.02
2023-01-04T04:44:36.092Z,100611.96
2023-01-04T04:47:24.750Z,100602.05
2023-01-04T04:50:13.207Z,100593.72
2023-01-04T04:53:01.889Z,100597.41
2023-01-04T04:55:54.487Z,100593.73
2023-01-04T04:58:42.540Z,100588.65
2023-01-04T05:01:31.144Z,100577.63
2023-01-04T05:04:19.961Z,100573.59
2023-01-04T05:07:12.487Z,100571.84
2023-01-04T05:10:01.157Z,100570.23
2023-01-04T05:13:04.233Z,100567.40
2023-01-04T05:15:54.535Z,100567.27
2023-01-04T05:18:42.836Z,100566.24
2023-01-04T05:21:31.141Z,100562.81
2023-01-04T05:24:19.901Z,100558.45
2023-01-04T05:27:07.962Z,100555.64
2023-01-04T05:30:14.832Z,100553.54
2023-01-04T05:33:04.532Z,100536.95
2023-01-04T05:35:54.876Z,100535.56
2023-01-04T05:38:43.042Z,100529.98
2023-01-04T05:41:49.821Z,100524.60
2023-01-04T05:44:38.201Z,100517.68
2023-01-04T05:47:28.438Z,100510.52
2023-01-04T05:50:16.912Z,100504.63
2023-01-04T05:53:08.154Z,100500.11
2023-01-04T05:55:56.580Z,100500.36
2023-01-04T05:58:44.860Z,100498.81
2023-01-04T06:01:33.246Z,100497.64
2023-01-04T06:04:21.214Z,100493.02
2023-01-04T06:07:09.559Z,100487.83
2023-01-04T06:09:58.436Z,100479.30
2023-01-04T06:12:48.026Z,100476.18
2023-01-04T06:15:42.835Z,100470.05
2023-01-04T06:18:31.962Z,100458.09
2023-01-04T06:21:20.468Z,100450.39
2023-01-04T06:24:11.632Z,100444.27
2023-01-04T06:27:01.430Z,100441.29
2023-01-04T06:29:49.569Z,100436.25
2023-01-04T06:32:37.809Z,100425.23
2023-01-04T06:35:26.515Z,100430.81
2023-01-04T06:38:15.025Z,100429.92
2023-01-04T06:41:03.279Z,100425.59
2023-01-04T06:43:51.703Z,100419.82
2023-01-04T06:46:41.489Z,100414.54
2023-01-04T06:49:29.917Z,100410.51
2023-01-04T06:52:18.188Z,100399.50
2023-01-04T06:55:09.738Z,100395.80
2023-01-04T06:57:59.608Z,100389.10
2023-01-04T07:00:48.039Z,100375.61
2023-01-04T07:03:36.349Z,100371.30
2023-01-04T07:06:25.057Z,100364.18
2023-01-04T07:09:14.041Z,100360.75
2023-01-04T07:12:03.654Z,100359.95
2023-01-04T07:14:52.376Z,100359.50
2023-01-04T07:17:41.008Z,100352.96
2023-01-04T07:20:29.982Z,100346.27
2023-01-04T07:23:18.173Z,100342.48
2023-01-04T07:26:08.601Z,100345.70
2023-01-04T07:29:15.807Z,100347.00
2023-01-04T07:32:07.697Z,100340.02
2023-01-04T07:35:00.011Z,100335.35
2023-01-04T07:37:52.164Z,100329.44
2023-01-04T07:40:56.657Z,100322.18
2023-01-04T07:43:46.813Z,100314.16
2023-01-04T07:46:35.906Z,100311.40
2023-01-04T07:49:25.047Z,100308.42
2023-01-04T07:52:14.435Z,100301.25
2023-01-04T07:55:02.675Z,100292.61
2023-01-04T07:57:54.531Z,100276.80
2023-01-04T08:00:42.586Z,100271.30
2023-01-04T08:03:30.803Z,100270.08
2023-01-04T08:06:21.465Z,100255.45
2023-01-04T08:09:12.204Z,100242.56
2023-01-04T08:12:00.965Z,100234.68
2023-01-04T08:14:52.260Z,100225.92
2023-01-04T08:17:41.537Z,100215.27
2023-01-04T08:20:29.486Z,100205.23
2023-01-04T08:23:19.866Z,100207.60
2023-01-04T08:26:12.645Z,100201.87
2023-01-04T08:29:00.815Z,100199.17
2023-01-04T08:31:49.441Z,100195.04
2023-01-04T08:34:37.766Z,100188.64
2023-01-04T08:37:25.701Z,100183.48
2023-01-04T08:40:13.863Z,100176.11
2023-01-04T08:43:04.855Z,100174.85
2023-01-04T08:45:55.602Z,100164.20
2023-01-04T08:48:44.544Z,100160.88
2023-01-04T08:51:33.081Z,100151.96
2023-01-04T08:54:22.976Z,100147.95
2023-01-04T08:57:11.315Z,100135.13
2023-01-04T08:59:59.549Z,100125.81
2023-01-04T09:02:48.276Z,100115.96
2023-01-04T09:05:37.285Z,100114.92
2023-01-04T09:08:25.312Z,100101.58
2023-01-04T09:11:17.086Z,100093.73
2023-01-04T09:14:08.427Z,100083.50
2023-01-04T09:16:57.559Z,100086.46
2023-01-04T09:19:46.241Z,100079.02
2023-01-04T09:22:37.494Z,100073.20
2023-01-04T09:25:26.071Z,100070.21
2023-01-04T09:28:14.344Z,100061.21
2023-01-04T09:31:15.352Z,100051.77
2023-01-04T09:34:19.191Z,100045.81
2023-01-04T09:37:07.513Z,100038.56
2023-01-04T09:39:55.855Z,100025.48
2023-01-04T09:42:45.522Z,100009.77
2023-01-04T09:45:34.209Z,99997.89
2023-01-04T09:48:29.472Z,99982.71
2023-01-04T09:51:20.842Z,99974.40
2023-01-04T09:54:20.753Z,99966.53
2023-01-04T09:57:42.979Z,99945.21
2023-01-04T10:00:45.004Z,99933.90
2023-01-04T10:03:40.331Z,99907.92
2023-01-04T10:06:33.965Z,99915.87
2023-01-04T10:09:23.558Z,99910.31
2023-01-04T10:12:31.916Z,99893.60
2023-01-04T10:15:41.467Z,99866.57
2023-01-04T10:19:17.070Z,99861.49
2023-01-04T10:22:54.890Z,99846.56
2023-01-04T10:26:16.186Z,99849.43
2023-01-04T10:29:30.401Z,99841.96
2023-01-04T10:32:29.002Z,99828.96
2023-01-04T10:35:28.168Z,99825.79
2023-01-04T10:38:23.953Z,99818.86
2023-01-04T10:41:21.753Z,99812.58
2023-01-04T10:44:39.430Z,99799.25
2023-01-04T10:47:39.958Z,99790.27
2023-01-04T10:50:31.684Z,99766.10
2023-01-04T10:53:48.700Z,99762.88
2023-01-04T10:56:49.539Z,99748.09
2023-01-04T10:59:56.052Z,99741.11
2023-01-04T11:03:13.455Z,99726.02
2023-01-04T11:06:25.220Z,99712.99
2023-01-04T11:09:27.960Z,99708.24
2023-01-04T11:12:19.336Z,99694.33
2023-01-04T11:15:08.722Z,99685.58
2023-01-04T11:18:00.659Z,99667.53
2023-01-04T11:20:49.921Z,99655.89
2023-01-04T11:23:38.803Z,99647.08
2023-01-04T11:26:38.969Z,99642.04
2023-01-04T11:30:12.397Z,99638.80
2023-01-04T11:33:20.024Z,99636.92
2023-01-04T11:36:08.428Z,99615.48
2023-01-04T11:38:58.037Z,99617.86
2023-01-04T11:42:05.237Z,99611.04
2023-01-04T11:45:00.315Z,99605.55
2023-01-04T11:47:54.752Z,99587.58
2023-01-04T11:50:48.730Z,99571.43
2023-01-04T11:53:38.134Z,99561.08
2023-01-04T11:56:52.692Z,99547.02
2023-01-04T11:59:41.856Z,99528.76
2023-01-04T12:03:00.067Z,99521.54
2023-01-04T12:05:41.336Z,99517.00
2023-01-04T12:08:37.209Z,99502.18
2023-01-04T12:11:31.690Z,99491.27
2023-01-04T12:14:34.500Z,99480.77
2023-01-04T12:17:43.529Z,99464.83
2023-01-04T12:20:32.237Z,99447.90
2023-01-04T12:23:21.276Z,99441.48
2023-01-04T12:26:12.486Z,99431.15
2023-01-04T12:29:22.797Z,99424.67
2023-01-04T12:32:11.741Z,99411.98
2023-01-04T12:35:00.120Z,99398.14
2023-01-04T12:37:50.995Z,99395.84
2023-01-04T12:40:45.221Z,99381.92
2023-01-04T12:43:44.669Z,99368.41
2023-01-04T12:47:01.197Z,99348.13
2023-01-04T12:50:16.607Z,99334.67
2023-01-04T12:56:14.489Z,99305.85
2023-01-04T12:59:25.202Z,99298.89
2023-01-04T13:02:24.311Z,99287.75
2023-01-04T13:08:33.724Z,99253.12
2023-01-04T13:12:09.373Z,99247.16
2023-01-04T13:15:06.182Z,99230.66
2023-01-04T13:17:54.665Z,99222.23
2023-01-04T13:20:45.163Z,99222.16
2023-01-04T13:23:34.123Z,99210.08
2023-01-04T13:26:49.089Z,99202.61
2023-01-04T13:29:37.339Z,99192.52
2023-01-04T13:32:46.925Z,99186.75
2023-01-04T13:35:43.216Z,99181.14
2023-01-04T13:38:34.517Z,99169.19
2023-01-04T13:41:23.507Z,99160.27
2023-01-04T13:44:32.922Z,99155.09
2023-01-04T13:47:38.081Z,99150.14
2023-01-04T13:50:47.317Z,99141.67
2023-01-04T13:53:36.080Z,99132.83
2023-01-04T13:56:28.126Z,99123.83
2023-01-04T13:59:17.177Z,99114.77
2023-01-04T14:02:18.238Z,99110.73
2023-01-04T14:05:18.454Z,99100.66
2023-01-04T14:08:11.680Z,99088.42
2023-01-04T14:11:00.087Z,99078.19
2023-01-04T14:13:48.754Z,99073.92
2023-01-04T14:16:37.697Z,99067.83
2023-01-04T14:20:00.144Z,99062.39
2023-01-04T14:22:48.196Z,99047.44
2023-01-04T14:25:49.529Z,99042.36
2023-01-04T14:28:49.585Z,99033.46
2023-01-04T14:31:38.735Z,99024.48
2023-01-04T14:34:27.472Z,99008.02
2023-01-04T14:37:15.917Z,99006.94
2023-01-04T14:40:15.873Z,98981.98
2023-01-04T14:43:35.200Z,98973.65
2023-01-04T14:46:23.855Z,98962.91
2023-01-04T14:49:12.831Z,98951.68
2023-01-04T14:52:04.264Z,98948.06
2023-01-04T14:54:52.804Z,98935.05
2023-01-04T14:57:43.609Z,98938.23
2023-01-04T15:00:31.923Z,98941.34
2023-01-04T15:03:20.684Z,98924.30
2023-01-04T15:06:11.423Z,98921.27
2023-01-04T15:08:59.536Z,98921.95
2023-01-04T15:11:48.117Z,98910.20
2023-01-04T15:14:36.494Z,98907.89
2023-01-04T15:17:25.119Z,98894.31
2023-01-04T15:20:14.526Z,98884.01
2023-01-04T15:23:02.903Z,98875.07
2023-01-04T15:25:51.913Z,98867.23
2023-01-04T15:28:40.528Z,98865.34
2023-01-04T15:31:35.000Z,98854.11
2023-01-04T15:34:28.564Z,98841.49
2023-01-04T15:37:23.592Z,98838.21
2023-01-04T15:40:16.174Z,98831.97
2023-01-04T15:43:05.237Z,98825.59
2023-01-04T15:45:55.740Z,98820.70
2023-01-04T15:48:44.229Z,98816.02
2023-01-04T15:51:32.122Z,98805.73
2023-01-04T15:54:21.996Z,98801.24
2023-01-04T15:57:10.489Z,98785.99
2023-01-04T15:59:59.069Z,98775.31
2023-01-04T16:02:47.617Z,98773.20
2023-01-04T16:05:35.980Z,98759.35
2023-01-04T16:08:24.101Z,98757.80
2023-01-04T16:11:19.089Z,98742.77
2023-01-04T16:14:07.319Z,98744.00
2023-01-04T16:16:56.993Z,98738.71
2023-01-04T16:19:45.333Z,98730.21
2023-01-04T16:22:33.634Z,98715.91
2023-01-04T16:25:24.520Z,98715.59
2023-01-04T16:28:13.057Z,98704.63
2023-01-04T16:31:04.704Z,98712.83
2023-01-04T16:33:54.401Z,98697.47
2023-01-04T16:36:42.687Z,98697.79
2023-01-04T16:40:04.782Z,98683.67
2023-01-04T16:42:40.692Z,98679.16
2023-01-04T16:45:29.035Z,98681.80
2023-01-04T16:48:18.729Z,98675.33
2023-01-04T16:51:08.708Z,98678.11
2023-01-04T16:53:57.556Z,98668.95
2023-01-04T16:56:49.268Z,98667.14
2023-01-04T16:59:37.629Z,98667.48
2023-01-04T17:02:25.846Z,98655.34
2023-01-04T17:05:14.124Z,98645.21
2023-01-04T17:08:02.928Z,98641.05
2023-01-04T17:10:51.231Z,98634.62
2023-01-04T17:13:40.752Z,98643.63
2023-01-04T17:16:34.448Z,98627.59
2023-01-04T17:19:23.443Z,98619.38
2023-01-04T17:22:12.010Z,98615.52
2023-01-04T17:25:00.489Z,98612.92
2023-01-04T17:27:48.794Z,98605.60
2023-01-04T17:30:41.661Z,98596.45
2023-01-04T17:33:30.032Z,98596.52
2023-01-04T17:36:21.015Z,98584.41
2023-01-04T17:39:09.266Z,98579.83
2023-01-04T17:41:57.803Z,98583.64
2023-01-04T17:44:49.497Z,98573.59
2023-01-04T17:47:39.108Z,98571.06
2023-01-04T17:50:27.588Z,98562.39
2023-01-04T17:53:16.221Z,98562.92
2023-01-04T17:56:10.333Z,98554.62
2023-01-04T17:59:02.700Z,98547.38
2023-01-04T18:01:51.578Z,98543.39
2023-01-04T18:04:40.968Z,98536.50
2023-01-04T18:07:29.632Z,98530.95
2023-01-04T18:10:27.197Z,98522.79
2023-01-04T18:13:27.317Z,98517.90
2023-01-04T18:16:24.728Z,98511.03
2023-01-04T18:19:13.438Z,98509.95
2023-01-04T18:22:02.295Z,98502.51
2023-01-04T18:24:51.380Z,98499.69
2023-01-04T18:27:40.224Z,98492.53
2023-01-04T18:30:28.676Z,98485.86
2023-01-04T18:33:17.026Z,98477.49
2023-01-04T18:36:07.708Z,98473.97
2023-01-04T18:38:58.523Z,98474.81
2023-01-04T18:41:47.593Z,98465.12
2023-01-04T18:44:36.943Z,98461.75
2023-01-04T18:47:28.187Z,98451.13
2023-01-04T18:50:18.022Z,98444.75
2023-01-04T18:53:07.234Z,98442.70
2023-01-04T18:55:55.265Z,98443.45
2023-01-04T18:58:43.259Z,98433.02
2023-01-04T19:01:31.983Z,98435.81
2023-01-04T19:04:20.571Z,98436.05
2023-01-04T19:07:09.292Z,98431.07
2023-01-04T19:09:57.756Z,98427.45
2023-01-04T19:12:46.825Z,98422.73
2023-01-04T19:15:36.466Z,98414.68
2023-01-04T19:18:29.261Z,98412.27
2023-01-04T19:21:17.565Z,98400.52
2023-01-04T19:24:06.632Z,98398.75
2023-01-04T19:26:55.514Z,98402.20
2023-01-04T19:29:44.652Z,98401.83
2023-01-04T19:32:33.876Z,98401.14
2023-01-04T19:35:22.697Z,98396.33
2023-01-04T19:38:11.902Z,98396.23
2023-01-04T19:41:01.635Z,98394.91
2023-01-04T19:43:51.320Z,98397.73
2023-01-04T19:46:40.598Z,98393.30
2023-01-04T19:49:28.723Z,98387.69
2023-01-04T19:52:16.989Z,98371.63
2023-01-04T19:55:06.549Z,98370.62
2023-01-04T19:57:55.099Z,98361.86
2023-01-04T20:00:54.225Z,98366.27
2023-01-04T20:03:43.948Z,98361.01
2023-01-04T20:06:33.645Z,98360.59
2023-01-04T20:09:26.106Z,98352.55
2023-01-04T20:12:15.901Z,98353.29
2023-01-04T20:15:04.549Z,98355.46
2023-01-04T20:17:52.883Z,98349.52
2023-01-04T20:20:47.906Z,98350.95
2023-01-04T20:23:37.080Z,98354.20
2023-01-04T20:26:25.859Z,98353.33
2023-01-04T20:29:14.858Z,98355.33
2023-01-04T20:32:04.767Z,98348.64
2023-01-04T20:34:53.120Z,98350.39
2023-01-04T20:37:41.591Z,98345.73
2023-01-04T20:40:30.058Z,98345.15
2023-01-04T20:43:35.981Z,98344.14
2023-01-04T20:46:33.021Z,98346.48
2023-01-04T20:49:21.994Z,98351.86
2023-01-04T20:52:10.504Z,98345.60
2023-01-04T20:54:58.387Z,98350.62
2023-01-04T20:57:46.945Z,98344.89
2023-01-04T21:00:37.403Z,98353.72
2023-01-04T21:03:25.535Z,98345.64
2023-01-04T21:06:18.454Z,98344.98
2023-01-04T21:09:06.881Z,98335.31
2023-01-04T21:11:56.035Z,98330.55
2023-01-04T21:14:44.520Z,98328.73
2023-01-04T21:17:32.544Z,98324.70
2023-01-04T21:20:21.833Z,98317.77
2023-01-04T21:23:18.211Z,98312.81
2023-01-04T21:26:09.484Z,98316.63
2023-01-04T21:28:57.718Z,98307.33
2023-01-04T21:31:46.267Z,98299.45
2023-01-04T21:34:35.238Z,98297.11
2023-01-04T21:37:25.004Z,98294.13
2023-01-04T21:40:29.373Z,98290.31
2023-01-04T21:43:18.743Z,98288.67
2023-01-04T21:46:11.189Z,98278.88
2023-01-04T21:49:01.837Z,98279.63
2023-01-04T21:51:49.895Z,98276.56
2023-01-04T21:54:40.019Z,98277.54
2023-01-04T21:57:30.295Z,98272.50
2023-01-04T22:00:18.218Z,98264.34
2023-01-04T22:03:06.852Z,98253.96
2023-01-04T22:06:02.155Z,98253.61
2023-01-04T22:08:53.120Z,98248.95
2023-01-04T22:11:48.629Z,98246.88
2023-01-04T22:14:39.408Z,98240.75
2023-01-04T22:17:29.764Z,98241.96
2023-01-04T22:20:18.115Z,98238.06
2023-01-04T22:23:05.983Z,98230.55
2023-01-04T22:25:57.291Z,98233.16
2023-01-04T22:28:46.786Z,98236.27
2023-01-04T22:31:34.985Z,98234.74
2023-01-04T22:34:25.230Z,98233.05
2023-01-04T22:37:14.381Z,98231.48
2023-01-04T22:40:03.170Z,98226.77
2023-01-04T22:42:53.496Z,98225.35
2023-01-04T22:45:41.899Z,98223.39
2023-01-04T22:48:30.228Z,98222.30
2023-01-04T22:51:20.554Z,98217.14
2023-01-04T22:54:19.312Z,98217.20
2023-01-04T22:57:11.573Z,98205.30
2023-01-04T23:00:04.312Z,98208.40
2023-01-04T23:02:52.736Z,98228.80
2023-01-04T23:05:41.620Z,98227.41
2023-01-04T23:08:30.167Z,98217.42
2023-01-04T23:11:20.775Z,98221.16
2023-01-04T23:14:16.957Z,98218.65
2023-01-04T23:17:05.482Z,98209.95
2023-01-04T23:19:57.756Z,98211.65
2023-01-04T23:22:49.018Z,98204.91
2023-01-04T23:25:37.218Z,98216.84
2023-01-04T23:28:25.925Z,98210.33
2023-01-04T23:31:18.127Z,98207.80
2023-01-04T23:34:07.635Z,98206.73
2023-01-04T23:36:55.800Z,98196.91
2023-01-04T23:39:43.778Z,98189.91
2023-01-04T23:42:31.747Z,98191.06
2023-01-04T23:45:20.609Z,98188.86
2023-01-04T23:48:09.571Z,98184.38
2023-01-04T23:50:58.225Z,98193.36
2023-01-04T23:53:46.792Z,98192.08
2023-01-04T23:56:36.867Z,98191.98
2023-01-04T23:59:25.876Z,98188.98
